Terminal Aerodrome Forecast
Issued by NWS North Platte, NE

Home | Current Version | Previous Version | Text Only | Print | Product List | Glossary Off
Versions: 1 2 3 4 5 6 7 8 9 10 11 12 13 14 15 16 17 18 19 20 21 22 23 24 25

690
FTUS43 KLBF 240445 AAA
TAFVTN
TAF AMD
KVTN 240445Z 2405/2424 01016G23KT P6SM OVC120
     FM241000 36018G25KT P6SM VCSH OVC015
     FM241600 01020G28KT 3SM -SHRA OVC010
     FM241800 01019G27KT P6SM OVC015
     FM242000 01018G25KT P6SM OVC040=

USA.gov is the U.S. government's official web portal to all federal, state and local government web resources and services.